Nearby METAR Reports

 

YBBN - Brisbane Intl Ar, Australia
Distance from station: SE 37km
Updated: 22/08/2019 06:00
Clear
Clear
 Wind from SSW
Wind: SSW 9 km/h
Temperature: 11°C
Dew Point: 2°C
Humidity: 54%
Barometer: 1015 hPa
Summary: Clear
Visibility: greater than 10 km
2019/08/21 20:00 YBBN 212000Z 21005KT CAVOK 11/02 Q1015
YAMB - Amberley, Australia
Distance from station: SSW 50km
Updated: 22/08/2019 06:00
Clear
Clear
 Wind from ENE
Wind: ENE 7 km/h
Temperature: 12°C
Dew Point: 3°C
Humidity: 54%
Barometer: 1015 hPa
Summary: Clear
Visibility: greater than 10 km
2019/08/21 20:00 YAMB 212000Z 07004KT CAVOK 12/03 Q1015
 
YBOK - Oakey (army/Civ), Australia
Distance from station: WSW 112km
Updated: 22/08/2019 05:00
Clear
Clear
 Wind from WNW
Wind: WNW 17 km/h
Temperature: 6°C
Wind Chill: 3°C
Dew Point: -1°C
Humidity: 61%
Barometer: 1019 hPa
Clouds: Clear
Visibility: 10 km
2019/08/21 19:00 YBOK 211900Z AUTO 29009KT 9999 // NCD 06/M01 Q1019
YKRY - Kingaroy Arpt, Australia
Distance from station: NW 121km
Updated: 22/08/2019 05:00
Clear
Clear
 Wind from S
Wind: S 22 km/h
Temperature: 10°C
Wind Chill: 7°C
Dew Point: 3°C
Humidity: 62%
Barometer: 1018 hPa
Clouds: Clear
Visibility: 10 km
2019/08/21 19:00 YKRY 211900Z AUTO 18012KT 9999 // NCD 10/03 Q1018
 
YBCG - Coolangatta Aws, Australia
Distance from station: SSE 127km
Updated: 22/08/2019 06:00
Clear
Clear
 Wind from WSW
Wind: WSW 9 km/h
Temperature: 7°C
Wind Chill: 6°C
Dew Point: 3°C
Humidity: 76%
Barometer: 1014 hPa
Clouds: Clear
Visibility: 10 km
2019/08/21 20:00 YBCG 212000Z AUTO 24005KT 9999 // NCD 07/03 Q1014
YLIS - Lismore Arpt, Australia
Distance from station: SSE 187km
Updated: 22/08/2019 05:00

 Wind from NNW
Wind: NNW 19 km/h
Temperature: 9°C
Wind Chill: 6°C
Dew Point: 3°C
Humidity: 66%
Barometer: 1014 hPa
Visibility: 10 km
2019/08/21 19:00 YLIS 211900Z AUTO 34010KT 9999 // ////// 09/03 Q1014
 
YCAS - Casino Airport, Australia
Distance from station: S 189km
Updated: 22/08/2019 06:00

 Wind from WNW
Wind: WNW 9 km/h
Temperature: 8°C
Wind Chill: 6°C
Dew Point: 2°C
Humidity: 66%
Barometer: 1014 hPa
2019/08/21 20:00 YCAS 212000Z AUTO 29005KT //// // ////// 08/02 Q1014
YBNA - Ballina Byron G., Australia
Distance from station: SSE 196km
Updated: 22/08/2019 05:00
Clear
Clear
 Wind from W
Wind: W 26 km/h
Temperature: 15°C
Dew Point: 4°C
Humidity: 48%
Barometer: 1013 hPa
Clouds: Clear
Visibility: 10 km
2019/08/21 19:00 YBNA 211900Z AUTO 28014KT 9999 // NCD 15/04 Q1013
 
YBUD - Bundaberg, Australia
Distance from station: NNW 260km
Updated: 22/08/2019 06:00
Clear
Clear
 Wind from WSW
Wind: WSW 22 km/h
Temperature: 14°C
Dew Point: 1°C
Humidity: 41%
Barometer: 1017 hPa
Clouds: Clear
Visibility: 10 km
2019/08/21 20:00 YBUD 212000Z AUTO 24012KT 9999 // NCD 14/01 Q1017
YGFN - Grafton Arpt, Australia
Distance from station: S 287km
Updated: 22/08/2019 05:00
Clear
Clear
 Wind from N
Wind: N 6 km/h
Temperature: 12°C
Dew Point: 3°C
Humidity: 54%
Barometer: 1014 hPa
Clouds: Clear
Visibility: 10 km
2019/08/21 19:00 YGFN 211900Z AUTO 35003KT 9999 // NCD 12/03 Q1014